Time;durP1;ratioP1;P1;durP2;ratioP2;P2;SDS_P1;SDS_P2;PMS_P1;PMS_P2;Temp;Humidity;BMP_temperature;BMP_pressure;BME280_temperature;BME280_humidity;BME280_pressure;Samples;Min_cycle;Max_cycle;Signal;HPM_P1;HPM_P2
2023/03/07 00:01:47;;;;;;;5.65;2.47;;;-3.50;99.90;;;;;;4960763;28;21077;-68
2023/03/07 00:04:14;;;;;;;3.75;1.75;;;-3.50;99.90;;;;;;4960066;28;20051;-71
2023/03/07 00:06:41;;;;;;;2.38;2.08;;;-3.40;99.90;;;;;;4962142;28;20451;-68
2023/03/07 00:09:08;;;;;;;7.18;2.10;;;-3.40;99.90;;;;;;4962004;28;20054;-66
2023/03/07 00:11:35;;;;;;;2.42;1.73;;;-3.40;99.90;;;;;;4961410;28;20077;-66
2023/03/07 00:14:07;;;;;;;2.58;2.08;;;-3.30;99.90;;;;;;4959654;28;21690;-67
2023/03/07 00:16:33;;;;;;;4.40;2.60;;;-3.30;99.90;;;;;;4960557;28;20055;-69
2023/03/07 00:19:00;;;;;;;5.28;2.75;;;-3.30;99.90;;;;;;4962524;28;20051;-67
2023/03/07 00:21:31;;;;;;;3.58;2.47;;;-3.30;99.90;;;;;;4960451;28;20500;-69
2023/03/07 00:23:58;;;;;;;4.13;3.00;;;-3.30;99.90;;;;;;4960148;28;20070;-71
2023/03/07 00:26:26;;;;;;;4.40;2.50;;;-3.30;99.90;;;;;;4960813;28;20388;-66
2023/03/07 00:28:54;;;;;;;4.38;2.63;;;-3.20;99.90;;;;;;4961618;28;20053;-69
2023/03/07 00:31:22;;;;;;;4.22;2.35;;;-3.20;99.90;;;;;;4960968;28;20077;-69
2023/03/07 00:33:49;;;;;;;4.68;2.53;;;-3.20;99.90;;;;;;4959727;28;20492;-68
2023/03/07 00:36:19;;;;;;;3.53;2.30;;;-3.20;99.90;;;;;;4960420;28;20595;-71
2023/03/07 00:38:47;;;;;;;5.63;2.78;;;-3.20;99.90;;;;;;4961341;28;20054;-65
2023/03/07 00:41:16;;;;;;;3.40;2.13;;;-3.20;99.90;;;;;;4960971;28;20129;-68
2023/03/07 00:43:45;;;;;;;2.95;2.28;;;-3.20;99.90;;;;;;4960656;28;20129;-73
2023/03/07 00:46:14;;;;;;;5.10;2.40;;;-3.20;99.90;;;;;;4971926;28;20061;-69
2023/03/07 00:48:41;;;;;;;3.17;2.05;;;-3.20;99.90;;;;;;4958857;28;20458;-71
2023/03/07 00:51:10;;;;;;;4.65;2.03;;;-3.20;99.90;;;;;;4961099;28;20054;-68
2023/03/07 00:53:38;;;;;;;5.78;2.63;;;-3.20;99.90;;;;;;4958710;28;20042;-70
2023/03/07 00:56:14;;;;;;;5.38;1.88;;;-3.20;99.90;;;;;;4958237;28;20141;-70
2023/03/07 00:58:43;;;;;;;2.83;1.70;;;-3.10;99.90;;;;;;4958564;28;20061;-70
2023/03/07 01:01:12;;;;;;;2.22;1.77;;;-3.10;99.90;;;;;;4961077;28;20170;-68
2023/03/07 01:03:40;;;;;;;4.70;1.70;;;-3.10;99.90;;;;;;4959345;28;20077;-70
2023/03/07 01:06:11;;;;;;;2.53;2.03;;;-3.10;99.90;;;;;;4953888;28;20387;-68
2023/03/07 01:08:38;;;;;;;3.33;2.33;;;-3.10;99.90;;;;;;4974842;28;20046;-69
2023/03/07 01:11:06;;;;;;;2.65;1.60;;;-3.10;99.90;;;;;;4959935;28;20043;-64
2023/03/07 01:13:34;;;;;;;5.93;1.95;;;-3.10;99.90;;;;;;4959748;28;20082;-67
2023/03/07 01:16:07;;;;;;;3.22;1.70;;;-3.10;99.90;;;;;;4956101;28;20057;-68
2023/03/07 01:18:35;;;;;;;3.23;2.20;;;-3.10;99.90;;;;;;4958564;28;20481;-73
2023/03/07 01:21:15;;;;;;;3.83;1.83;;;-3.00;99.90;;;;;;4960684;28;20049;-71
2023/03/07 01:23:43;;;;;;;3.60;2.17;;;-3.10;99.90;;;;;;4961428;28;20054;-65
2023/03/07 01:26:18;;;;;;;2.72;1.50;;;-3.00;99.90;;;;;;4957005;28;20059;-73
2023/03/07 01:28:46;;;;;;;4.32;2.03;;;-3.00;99.90;;;;;;4959543;28;20540;-69
2023/03/07 01:31:13;;;;;;;2.97;2.00;;;-3.10;99.90;;;;;;4990847;28;20057;-68
2023/03/07 01:33:40;;;;;;;3.72;1.92;;;-3.10;99.90;;;;;;4958308;28;20166;-66
2023/03/07 01:36:18;;;;;;;2.47;1.30;;;-3.10;99.90;;;;;;4956324;28;20081;-67
2023/03/07 01:38:47;;;;;;;2.85;2.20;;;-3.10;99.90;;;;;;4958848;28;20157;-67
2023/03/07 01:41:15;;;;;;;4.68;2.90;;;-3.20;99.90;;;;;;4959260;28;20101;-69
2023/03/07 01:43:43;;;;;;;5.25;3.85;;;-3.20;99.90;;;;;;4958127;28;20078;-73
2023/03/07 01:46:17;;;;;;;4.95;2.50;;;-3.30;99.90;;;;;;4956428;28;20154;-69
2023/03/07 01:48:53;;;;;;;4.88;2.60;;;-3.30;99.90;;;;;;4958540;28;20449;-68
2023/03/07 01:51:21;;;;;;;7.45;2.42;;;-3.40;99.90;;;;;;4958353;28;20057;-68
2023/03/07 01:53:51;;;;;;;3.80;2.00;;;-3.50;99.90;;;;;;4956905;28;20055;-67
2023/03/07 01:56:20;;;;;;;4.35;1.85;;;-3.50;99.90;;;;;;4959452;28;20058;-67
2023/03/07 01:58:47;;;;;;;3.53;2.20;;;-3.50;99.90;;;;;;4958390;28;20677;-70
2023/03/07 02:01:16;;;;;;;2.75;1.90;;;-3.60;99.90;;;;;;4989774;28;20046;-68
2023/03/07 02:04:01;;;;;;;2.55;1.80;;;-3.60;99.90;;;;;;4959229;28;20078;-69
2023/03/07 02:06:30;;;;;;;4.15;2.40;;;-3.70;99.90;;;;;;4958368;28;21017;-68
2023/03/07 02:08:59;;;;;;;3.15;1.80;;;-3.70;99.90;;;;;;4990326;28;20047;-69
2023/03/07 02:11:26;;;;;;;4.63;1.80;;;-3.70;99.90;;;;;;4942037;28;20157;-74
2023/03/07 02:13:53;;;;;;;3.17;1.88;;;-3.70;99.90;;;;;;4957486;28;20047;-70
2023/03/07 02:16:20;;;;;;;2.85;2.05;;;-3.80;99.90;;;;;;4960074;28;20591;-72
2023/03/07 02:18:49;;;;;;;2.10;1.40;;;-3.80;99.90;;;;;;4959510;28;21455;-70
2023/03/07 02:21:16;;;;;;;2.80;2.08;;;-3.80;99.90;;;;;;4958456;28;20053;-65
2023/03/07 02:23:46;;;;;;;3.38;1.35;;;-3.90;99.90;;;;;;4957652;28;20054;-68
2023/03/07 02:26:46;;;;;;;4.15;2.08;;;-3.90;99.90;;;;;;4956491;28;20058;-66
2023/03/07 02:29:14;;;;;;;4.45;2.08;;;-3.90;99.90;;;;;;4957982;28;20077;-64
2023/03/07 02:31:44;;;;;;;3.83;2.60;;;-3.90;99.90;;;;;;4958516;28;20268;-67
2023/03/07 02:34:30;;;;;;;2.75;1.65;;;-3.80;99.90;;;;;;4955997;28;20143;-67
2023/03/07 02:37:26;;;;;;;3.90;1.75;;;-3.80;99.90;;;;;;4958041;28;20584;-71
2023/03/07 02:39:55;;;;;;;4.15;1.98;;;-3.80;99.90;;;;;;4956340;28;20745;-66
2023/03/07 02:42:27;;;;;;;2.50;1.87;;;-3.80;99.90;;;;;;4989759;28;20690;-70
2023/03/07 02:45:13;;;;;;;4.87;2.50;;;-3.80;99.90;;;;;;4957889;28;20100;-69
2023/03/07 02:47:42;;;;;;;5.00;2.35;;;-3.80;99.90;;;;;;4959454;28;20047;-68
2023/03/07 02:50:13;;;;;;;5.88;2.92;;;-3.90;99.90;;;;;;4956312;28;20512;-73
2023/03/07 02:52:42;;;;;;;3.28;2.17;;;-3.90;99.90;;;;;;4974614;28;20047;-68
2023/03/07 02:55:10;;;;;;;3.20;2.35;;;-3.90;99.90;;;;;;4957668;28;20055;-71
2023/03/07 02:57:42;;;;;;;8.30;3.10;;;-3.90;99.90;;;;;;4987552;28;20043;-70
2023/03/07 03:00:11;;;;;;;3.77;2.70;;;-4.00;99.90;;;;;;4952140;28;20558;-71
2023/03/07 03:02:38;;;;;;;4.27;2.73;;;-4.00;99.90;;;;;;4955222;28;20128;-69
2023/03/07 03:05:05;;;;;;;6.77;3.23;;;-4.00;99.90;;;;;;4957925;28;20050;-71
2023/03/07 03:07:32;;;;;;;2.33;1.60;;;-4.10;99.90;;;;;;4958458;28;20061;-66
2023/03/07 03:10:01;;;;;;;3.50;2.40;;;-4.10;99.90;;;;;;4957730;28;20057;-69
2023/03/07 03:12:30;;;;;;;5.60;2.47;;;-4.20;99.90;;;;;;4958843;28;20054;-71
2023/03/07 03:14:57;;;;;;;4.77;2.50;;;-4.30;99.90;;;;;;4961712;28;20251;-68
2023/03/07 03:17:24;;;;;;;4.40;2.83;;;-4.30;99.90;;;;;;4962771;28;20055;-72
2023/03/07 03:19:51;;;;;;;2.50;2.03;;;-4.30;99.90;;;;;;4959680;28;20054;-70
2023/03/07 03:22:19;;;;;;;6.35;2.65;;;-4.30;99.90;;;;;;4960744;28;21135;-75
2023/03/07 03:24:48;;;;;;;6.15;2.90;;;-4.30;99.90;;;;;;4976872;28;20122;-68
2023/03/07 03:27:16;;;;;;;2.37;1.97;;;-4.30;99.90;;;;;;4960489;28;20061;-67
2023/03/07 03:29:46;;;;;;;6.05;2.22;;;-4.20;99.90;;;;;;4993386;28;20043;-69
2023/03/07 03:32:13;;;;;;;3.83;2.27;;;-4.10;99.90;;;;;;4957962;28;20061;-70
2023/03/07 03:34:42;;;;;;;3.03;1.70;;;-4.00;99.90;;;;;;4959923;28;20058;-68
2023/03/07 03:37:09;;;;;;;2.67;1.80;;;-3.90;99.90;;;;;;4961072;28;20060;-66
2023/03/07 03:39:36;;;;;;;3.00;2.13;;;-3.90;99.90;;;;;;4960204;28;20053;-66
2023/03/07 03:42:05;;;;;;;2.97;2.47;;;-3.90;99.90;;;;;;4959469;28;20050;-67
2023/03/07 03:44:32;;;;;;;3.25;2.00;;;-3.90;99.90;;;;;;4960626;28;20141;-68
2023/03/07 03:46:59;;;;;;;3.73;2.07;;;-3.90;99.90;;;;;;4959514;28;20050;-66
2023/03/07 03:49:27;;;;;;;2.93;1.83;;;-3.90;99.90;;;;;;4959980;28;20072;-72
2023/03/07 03:51:54;;;;;;;4.00;2.08;;;-3.80;99.90;;;;;;4957106;28;20051;-71
2023/03/07 03:54:21;;;;;;;5.25;2.28;;;-3.80;99.90;;;;;;4960724;28;20061;-66
2023/03/07 03:56:48;;;;;;;3.60;2.42;;;-3.80;99.90;;;;;;4961073;28;20061;-67
2023/03/07 03:59:15;;;;;;;4.85;1.70;;;-3.80;99.90;;;;;;4962772;28;21517;-66
2023/03/07 04:01:42;;;;;;;2.80;2.35;;;-3.80;99.90;;;;;;4961402;28;20053;-67
2023/03/07 04:04:09;;;;;;;5.37;2.10;;;-3.90;99.90;;;;;;4958058;28;20058;-69
2023/03/07 04:06:37;;;;;;;9.60;3.10;;;-3.90;99.90;;;;;;4960014;28;20058;-68
2023/03/07 04:09:04;;;;;;;4.83;3.20;;;-4.00;99.90;;;;;;4992504;28;20125;-66
2023/03/07 04:11:32;;;;;;;3.08;1.88;;;-4.10;99.90;;;;;;4960347;28;20047;-71
2023/03/07 04:14:00;;;;;;;3.67;2.23;;;-4.10;99.90;;;;;;4958095;28;20058;-69
2023/03/07 04:16:27;;;;;;;5.93;2.20;;;-4.20;99.90;;;;;;4958880;28;20054;-67
2023/03/07 04:18:54;;;;;;;3.47;2.75;;;-4.20;99.90;;;;;;4959542;28;20047;-68
2023/03/07 04:21:21;;;;;;;4.70;2.13;;;-4.30;99.90;;;;;;4960107;28;20157;-69
2023/03/07 04:23:54;;;;;;;2.95;2.17;;;-4.40;99.90;;;;;;4957976;28;20055;-68
2023/03/07 04:26:23;;;;;;;4.65;2.40;;;-4.40;99.90;;;;;;4959710;28;20059;-71
2023/03/07 04:28:50;;;;;;;7.90;2.20;;;-4.50;99.90;;;;;;4959480;28;20061;-68
2023/03/07 04:31:24;;;;;;;2.93;2.13;;;-4.50;99.90;;;;;;4959902;28;20086;-65
2023/03/07 04:33:52;;;;;;;1.95;1.58;;;-4.60;99.90;;;;;;4957789;28;20445;-68
2023/03/07 04:36:20;;;;;;;3.87;2.43;;;-4.60;99.90;;;;;;4960583;28;20460;-70
2023/03/07 04:38:49;;;;;;;4.70;2.50;;;-4.60;99.90;;;;;;4959556;28;20051;-71
2023/03/07 04:41:24;;;;;;;3.97;2.53;;;-4.70;99.90;;;;;;4959276;28;20057;-69
2023/03/07 04:44:13;;;;;;;4.80;2.20;;;-4.70;99.90;;;;;;4959019;28;20054;-65
2023/03/07 04:46:40;;;;;;;2.83;2.03;;;-4.70;99.90;;;;;;4958665;28;20050;-68
2023/03/07 04:49:07;;;;;;;4.00;2.13;;;-4.70;99.90;;;;;;4960029;28;20500;-71
2023/03/07 04:51:34;;;;;;;3.67;2.20;;;-4.80;99.90;;;;;;4961047;28;20047;-68
2023/03/07 04:54:01;;;;;;;3.83;2.60;;;-4.80;99.90;;;;;;4959302;28;20458;-68
2023/03/07 04:56:28;;;;;;;3.80;2.30;;;-4.80;99.90;;;;;;4959480;28;20059;-68
2023/03/07 04:58:55;;;;;;;5.17;2.67;;;-4.90;99.90;;;;;;4958455;28;20332;-68
2023/03/07 05:01:22;;;;;;;7.67;3.50;;;-4.80;99.90;;;;;;4961327;28;20775;-69
2023/03/07 05:03:50;;;;;;;3.83;2.33;;;-4.90;99.90;;;;;;4957072;28;20070;-69
2023/03/07 05:06:18;;;;;;;3.33;2.20;;;-4.90;99.90;;;;;;4958746;28;20051;-70
2023/03/07 05:08:48;;;;;;;4.88;2.22;;;-4.90;99.90;;;;;;4959075;28;20311;-69
2023/03/07 05:11:15;;;;;;;6.53;2.50;;;-4.90;99.90;;;;;;4959321;28;20460;-71
2023/03/07 05:13:42;;;;;;;4.70;2.90;;;-4.90;99.90;;;;;;4960566;28;20086;-68
2023/03/07 05:16:10;;;;;;;4.43;3.03;;;-4.90;99.90;;;;;;4956877;28;20050;-68
2023/03/07 05:18:37;;;;;;;3.70;2.50;;;-4.90;99.90;;;;;;4956730;28;20051;-70
2023/03/07 05:21:05;;;;;;;4.57;2.77;;;-4.90;99.90;;;;;;4956415;28;20242;-72
2023/03/07 05:23:32;;;;;;;3.97;2.37;;;-4.90;99.90;;;;;;4958037;28;20709;-68
2023/03/07 05:25:59;;;;;;;4.73;3.07;;;-4.90;99.90;;;;;;4955976;28;20149;-69
2023/03/07 05:28:26;;;;;;;4.00;2.57;;;-4.80;99.90;;;;;;4957971;28;20058;-69
2023/03/07 05:30:53;;;;;;;6.37;3.17;;;-4.80;99.90;;;;;;4959569;28;21379;-69
2023/03/07 05:33:20;;;;;;;3.70;2.83;;;-4.80;99.90;;;;;;4959010;28;20156;-71
2023/03/07 05:35:47;;;;;;;5.97;3.40;;;-4.80;99.90;;;;;;4958272;28;20093;-69
2023/03/07 05:38:15;;;;;;;8.67;4.67;;;-4.70;99.90;;;;;;4956927;28;20054;-74
2023/03/07 05:40:42;;;;;;;6.87;4.37;;;-4.70;99.90;;;;;;4958489;28;20181;-72
2023/03/07 05:43:10;;;;;;;7.93;4.20;;;-4.60;99.90;;;;;;4959162;28;20051;-65
2023/03/07 05:45:37;;;;;;;13.53;4.13;;;-4.60;99.90;;;;;;4960069;28;20096;-71
2023/03/07 05:48:04;;;;;;;8.13;2.97;;;-4.60;99.90;;;;;;4987966;28;20062;-71
2023/03/07 05:50:31;;;;;;;5.73;3.43;;;-4.50;99.90;;;;;;4958699;28;20109;-66
2023/03/07 05:52:58;;;;;;;3.97;2.77;;;-4.50;99.90;;;;;;4958286;28;20583;-68
2023/03/07 05:55:28;;;;;;;6.30;4.55;;;-4.40;99.90;;;;;;4958012;28;20051;-69
2023/03/07 05:57:55;;;;;;;7.33;3.07;;;-4.40;99.90;;;;;;4958585;28;20094;-71
2023/03/07 06:00:22;;;;;;;6.80;3.67;;;-4.30;99.90;;;;;;4960448;28;20527;-71
2023/03/07 06:03:00;;;;;;;5.83;3.00;;;-4.30;99.90;;;;;;4959996;28;20050;-73
2023/03/07 06:05:28;;;;;;;8.70;4.40;;;-4.20;99.90;;;;;;4959761;28;20488;-71
2023/03/07 06:07:55;;;;;;;3.43;2.47;;;-4.20;99.90;;;;;;4958412;28;20569;-75
2023/03/07 06:10:22;;;;;;;5.37;3.53;;;-4.10;99.90;;;;;;4956463;28;20078;-71
2023/03/07 06:12:51;;;;;;;5.67;3.37;;;-4.10;99.90;;;;;;4957725;28;20137;-73
2023/03/07 06:15:19;;;;;;;5.40;2.90;;;-4.00;99.90;;;;;;4957199;28;20058;-68
2023/03/07 06:17:49;;;;;;;6.53;3.30;;;-4.00;99.90;;;;;;4958126;28;20141;-68
2023/03/07 06:20:19;;;;;;;4.87;3.20;;;-3.90;99.90;;;;;;4956294;28;20102;-69
2023/03/07 06:22:47;;;;;;;6.88;3.38;;;-3.80;99.90;;;;;;4958010;28;20050;-68
2023/03/07 06:25:15;;;;;;;5.68;3.63;;;-3.80;99.90;;;;;;4958406;28;20141;-72
2023/03/07 06:27:42;;;;;;;5.77;3.57;;;-3.70;99.90;;;;;;4958631;28;20046;-69
2023/03/07 06:30:11;;;;;;;4.80;3.30;;;-3.60;99.90;;;;;;4957429;28;20145;-69
2023/03/07 06:32:38;;;;;;;5.60;3.10;;;-3.60;99.90;;;;;;4990703;28;20090;-71
2023/03/07 06:35:06;;;;;;;5.93;3.37;;;-3.50;99.90;;;;;;4958418;28;20069;-66
2023/03/07 06:37:33;;;;;;;7.78;3.00;;;-3.50;99.90;;;;;;4958958;28;20097;-67
2023/03/07 06:40:05;;;;;;;7.60;3.23;;;-3.40;99.90;;;;;;4957185;28;20061;-72
2023/03/07 06:42:34;;;;;;;5.93;2.87;;;-3.30;99.90;;;;;;4994242;28;20061;-72
2023/03/07 06:45:02;;;;;;;6.90;2.75;;;-3.30;99.90;;;;;;4962866;28;20144;-70
2023/03/07 06:47:29;;;;;;;3.88;2.72;;;-3.20;99.90;;;;;;4962242;28;20054;-69
2023/03/07 06:49:56;;;;;;;8.13;3.23;;;-3.10;99.90;;;;;;4992348;28;20050;-69
2023/03/07 06:52:24;;;;;;;6.57;2.47;;;-3.00;99.90;;;;;;4959275;28;20050;-72
2023/03/07 06:54:51;;;;;;;9.40;4.30;;;-2.90;99.90;;;;;;4991830;28;20098;-73
2023/03/07 06:57:18;;;;;;;5.65;3.15;;;-2.80;99.90;;;;;;4993563;28;20063;-71
2023/03/07 06:59:45;;;;;;;4.63;2.90;;;-2.80;99.90;;;;;;4993549;28;20436;-69
2023/03/07 07:02:13;;;;;;;7.07;4.28;;;-2.70;99.90;;;;;;4959850;28;21125;-67
2023/03/07 07:04:41;;;;;;;4.43;3.20;;;-2.70;99.90;;;;;;4960729;28;20487;-73
2023/03/07 07:07:08;;;;;;;3.65;2.33;;;-2.60;99.90;;;;;;4960764;28;20043;-69
2023/03/07 07:09:34;;;;;;;3.53;1.92;;;-2.40;99.90;;;;;;4977743;28;20062;-71
2023/03/07 07:12:03;;;;;;;10.55;3.58;;;-2.30;99.90;;;;;;4991547;28;20053;-72
2023/03/07 07:14:33;;;;;;;3.25;2.25;;;-2.30;99.90;;;;;;4977549;28;20051;-70
2023/03/07 07:17:00;;;;;;;5.78;2.35;;;-2.20;99.90;;;;;;4960124;28;20051;-69
2023/03/07 07:19:27;;;;;;;4.50;2.22;;;-2.10;99.90;;;;;;4963207;28;20166;-71
2023/03/07 07:21:56;;;;;;;3.33;3.03;;;-2.00;99.90;;;;;;4959274;28;20051;-72
2023/03/07 07:24:22;;;;;;;3.53;2.35;;;-1.90;99.90;;;;;;4960772;28;20055;-70
2023/03/07 07:26:51;;;;;;;1.98;1.42;;;-1.90;99.90;;;;;;4961312;28;20192;-71
2023/03/07 07:29:19;;;;;;;6.38;1.98;;;-1.80;99.90;;;;;;4960257;28;20050;-71
2023/03/07 07:31:48;;;;;;;4.55;2.22;;;-1.70;99.90;;;;;;4961164;28;20073;-69
2023/03/07 07:34:17;;;;;;;4.85;1.30;;;-1.60;99.90;;;;;;4958969;28;20414;-69
2023/03/07 07:36:45;;;;;;;2.70;1.90;;;-1.50;99.90;;;;;;4960093;28;20074;-69
2023/03/07 07:39:14;;;;;;;8.30;1.73;;;-1.50;99.90;;;;;;4960559;28;20050;-70
2023/03/07 07:41:43;;;;;;;4.07;2.33;;;-1.50;99.90;;;;;;4960980;28;20043;-69
2023/03/07 07:44:10;;;;;;;3.33;1.80;;;-1.40;99.90;;;;;;4958360;28;20046;-71
2023/03/07 07:46:50;;;;;;;3.45;2.03;;;-1.30;99.90;;;;;;4959976;28;20280;-70
2023/03/07 07:49:16;;;;;;;3.17;2.20;;;-1.30;99.90;;;;;;4962100;28;20121;-71
2023/03/07 07:51:44;;;;;;;3.83;2.28;;;-1.20;99.90;;;;;;4960861;28;20579;-67
2023/03/07 07:54:12;;;;;;;6.68;2.35;;;-1.20;99.90;;;;;;4958212;28;20055;-71
2023/03/07 07:56:39;;;;;;;1.48;1.25;;;-1.10;99.90;;;;;;4944091;28;20050;-73
2023/03/07 07:59:05;;;;;;;4.97;2.00;;;-1.10;99.90;;;;;;4961792;28;20050;-67
2023/03/07 08:01:33;;;;;;;9.50;2.53;;;-1.00;99.90;;;;;;4959564;28;20233;-70
2023/03/07 08:04:00;;;;;;;5.25;2.25;;;-1.00;99.90;;;;;;4958638;28;20051;-68
2023/03/07 08:06:27;;;;;;;6.05;2.00;;;-0.90;99.90;;;;;;4961559;28;20042;-73
2023/03/07 08:08:54;;;;;;;5.43;2.05;;;-0.90;99.90;;;;;;4960352;28;20105;-73
2023/03/07 08:11:22;;;;;;;2.78;1.77;;;-0.80;99.90;;;;;;4962351;28;20050;-69
2023/03/07 08:13:49;;;;;;;6.13;2.10;;;-0.80;99.90;;;;;;4960414;28;20405;-66
2023/03/07 08:16:19;;;;;;;5.80;1.92;;;-0.70;99.90;;;;;;4961069;28;20053;-68
2023/03/07 08:18:52;;;;;;;2.93;1.20;;;-0.70;99.90;;;;;;4961490;28;20050;-67
2023/03/07 08:21:20;;;;;;;4.22;1.63;;;-0.70;99.90;;;;;;4961806;28;20420;-67
2023/03/07 08:23:46;;;;;;;3.28;2.58;;;-0.60;99.90;;;;;;4961181;28;20057;-70
2023/03/07 08:26:13;;;;;;;3.75;1.80;;;-0.60;99.90;;;;;;4960138;28;20061;-67
2023/03/07 08:28:41;;;;;;;3.03;2.03;;;-0.50;99.90;;;;;;4961279;28;20835;-68
2023/03/07 08:31:10;;;;;;;4.63;2.00;;;-0.50;99.90;;;;;;4961212;28;20054;-67
2023/03/07 08:33:37;;;;;;;5.85;1.77;;;-0.50;99.90;;;;;;4959927;28;20425;-70
2023/03/07 08:36:05;;;;;;;2.78;1.65;;;-0.40;99.90;;;;;;4959749;28;20053;-70
2023/03/07 08:38:32;;;;;;;4.93;1.90;;;-0.30;99.90;;;;;;4961556;28;20051;-69
2023/03/07 08:41:04;;;;;;;5.50;1.95;;;-0.30;99.90;;;;;;4960915;28;20054;-68
2023/03/07 08:43:32;;;;;;;6.03;1.85;;;-0.20;99.90;;;;;;4960813;28;20074;-70
2023/03/07 08:45:59;;;;;;;4.68;2.22;;;-0.10;99.90;;;;;;4958415;28;20117;-68
2023/03/07 08:48:27;;;;;;;6.30;2.47;;;-0.10;99.90;;;;;;4961428;28;20101;-71
2023/03/07 08:50:54;;;;;;;4.75;2.60;;;0.00;99.90;;;;;;4960391;28;20133;-68
2023/03/07 08:53:21;;;;;;;6.47;1.95;;;0.00;99.90;;;;;;4960923;28;20074;-69
2023/03/07 08:55:48;;;;;;;4.20;1.80;;;0.10;99.90;;;;;;4960571;28;20051;-67
2023/03/07 08:58:15;;;;;;;5.97;1.50;;;0.10;99.90;;;;;;4957906;28;20507;-68
2023/03/07 09:00:42;;;;;;;5.68;3.15;;;0.10;99.90;;;;;;4960234;28;20138;-70
2023/03/07 09:03:09;;;;;;;4.40;1.55;;;0.20;99.90;;;;;;4960154;28;20097;-66
2023/03/07 09:05:40;;;;;;;1.95;1.30;;;0.30;99.90;;;;;;4960776;28;20043;-68
2023/03/07 09:08:07;;;;;;;4.25;1.55;;;0.30;99.90;;;;;;4958951;28;20055;-70
2023/03/07 09:10:35;;;;;;;4.15;1.75;;;0.30;99.90;;;;;;4959900;28;20054;-67
2023/03/07 09:13:02;;;;;;;4.05;1.77;;;0.40;99.90;;;;;;4959607;28;20056;-71
2023/03/07 09:15:29;;;;;;;1.67;1.35;;;0.40;99.90;;;;;;4960080;28;20070;-70
2023/03/07 09:17:56;;;;;;;2.60;1.50;;;0.50;99.90;;;;;;4957987;28;20484;-65
2023/03/07 09:20:23;;;;;;;7.15;1.55;;;0.60;99.90;;;;;;4960655;28;20134;-69
2023/03/07 09:22:52;;;;;;;2.80;1.50;;;0.70;99.90;;;;;;4959418;28;20124;-65
2023/03/07 09:25:19;;;;;;;8.25;1.98;;;0.80;99.90;;;;;;4960805;28;20054;-71
2023/03/07 09:27:46;;;;;;;4.43;1.77;;;0.90;99.90;;;;;;4960223;28;20049;-69
2023/03/07 09:30:14;;;;;;;2.42;1.42;;;1.00;99.90;;;;;;4958682;28;20055;-67
2023/03/07 09:32:41;;;;;;;2.55;1.75;;;1.10;99.90;;;;;;4960489;28;20073;-68
2023/03/07 09:35:09;;;;;;;4.50;2.38;;;1.20;99.90;;;;;;4960245;28;20054;-68
2023/03/07 09:37:36;;;;;;;3.67;1.92;;;1.30;99.90;;;;;;4959277;28;20043;-65
2023/03/07 09:40:06;;;;;;;3.55;1.85;;;1.40;99.90;;;;;;4958653;28;20046;-73
2023/03/07 09:42:53;;;;;;;;;;;1.50;99.90;;;;;;4960617;28;20046;-67
2023/03/07 09:45:43;;;;;;;4.60;2.00;;;1.60;99.90;;;;;;4957977;28;19929;-73
2023/03/07 09:48:32;;;;;;;8.38;3.13;;;1.70;99.90;;;;;;4973410;28;21458;-65
2023/03/07 09:51:25;;;;;;;5.40;1.63;;;1.70;99.90;;;;;;4990735;28;20145;-66
2023/03/07 09:54:21;;;;;;;4.82;2.42;;;1.70;99.90;;;;;;4957691;28;20057;-70
2023/03/07 09:56:59;;;;;;;6.20;1.77;;;1.80;99.90;;;;;;4959963;28;20051;-68
2023/03/07 09:59:44;;;;;;;4.18;2.20;;;1.80;99.90;;;;;;4959933;28;20161;-69
2023/03/07 10:02:20;;;;;;;4.70;2.08;;;1.90;99.90;;;;;;4958280;28;20060;-69
2023/03/07 10:05:08;;;;;;;4.50;2.40;;;2.00;99.90;;;;;;4959216;28;20057;-70
2023/03/07 10:07:36;;;;;;;8.98;1.92;;;2.00;99.90;;;;;;4959445;28;20058;-69
2023/03/07 10:10:17;;;;;;;3.47;1.75;;;2.00;99.90;;;;;;4956185;28;20053;-69
2023/03/07 10:12:56;;;;;;;8.13;3.25;;;2.00;99.90;;;;;;4959525;28;20050;-67
2023/03/07 10:15:44;;;;;;;3.33;1.92;;;2.00;99.90;;;;;;4959896;28;20405;-66
2023/03/07 10:18:26;;;;;;;2.85;2.17;;;2.00;99.90;;;;;;4956801;28;20148;-73
2023/03/07 10:21:01;;;;;;;2.65;2.08;;;2.10;99.90;;;;;;4960272;28;20161;-69
2023/03/07 10:23:36;;;;;;;11.70;2.03;;;2.10;99.90;;;;;;4959386;28;20106;-73
2023/03/07 10:26:27;;;;;;;5.10;2.13;;;2.00;99.90;;;;;;4957396;28;20137;-69
2023/03/07 10:28:57;;;;;;;6.35;2.17;;;2.00;99.90;;;;;;4959922;28;20686;-68
2023/03/07 10:31:28;;;;;;;;;;;2.00;99.90;;;;;;4959470;28;20046;-70
2023/03/07 10:33:55;;;;;;;;;;;1.90;99.90;;;;;;4958103;28;19926;-70
2023/03/07 10:36:41;;;;;;;2.03;1.48;;;1.90;99.90;;;;;;4959098;28;19930;-69
2023/03/07 10:39:31;;;;;;;2.58;1.80;;;1.90;99.90;;;;;;4958691;28;20046;-67
2023/03/07 10:41:58;;;;;;;2.83;1.55;;;1.90;99.90;;;;;;4957951;28;20133;-67
2023/03/07 10:44:28;;;;;;;3.08;2.15;;;2.00;99.90;;;;;;4959040;28;20500;-72
2023/03/07 10:46:57;;;;;;;5.05;2.38;;;1.90;99.90;;;;;;4959122;28;20265;-68
2023/03/07 10:49:42;;;;;;;6.07;2.28;;;1.90;99.90;;;;;;4959490;28;20674;-70
2023/03/07 10:52:12;;;;;;;4.78;1.90;;;1.90;99.90;;;;;;4956901;28;20070;-66
2023/03/07 10:54:39;;;;;;;4.63;2.35;;;2.00;99.90;;;;;;4959244;28;20105;-67
2023/03/07 10:57:09;;;;;;;5.80;2.70;;;2.00;99.90;;;;;;4958366;28;20556;-67
2023/03/07 10:59:38;;;;;;;2.90;1.85;;;1.90;99.90;;;;;;4959585;28;20912;-69
2023/03/07 11:02:35;;;;;;;6.35;4.97;;;1.90;99.90;;;;;;4957586;28;20062;-71
2023/03/07 11:05:22;;;;;;;4.93;2.97;;;1.90;99.90;;;;;;4958364;28;20047;-67
2023/03/07 11:07:49;;;;;;;4.95;3.25;;;1.90;99.90;;;;;;4956400;28;20062;-70
2023/03/07 11:10:32;;;;;;;4.93;3.38;;;1.80;99.90;;;;;;4956156;28;20049;-70
2023/03/07 11:13:16;;;;;;;9.05;3.92;;;1.80;99.90;;;;;;4957779;28;20058;-71
2023/03/07 11:15:46;;;;;;;4.05;2.67;;;1.80;99.90;;;;;;4958988;28;20488;-73
2023/03/07 11:18:38;;;;;;;4.45;2.95;;;1.80;99.90;;;;;;4959233;28;20754;-66
2023/03/07 11:21:05;;;;;;;8.23;2.33;;;1.80;99.90;;;;;;4958945;28;20145;-69
2023/03/07 11:23:32;;;;;;;6.65;2.88;;;1.80;99.90;;;;;;4958988;28;20061;-70
2023/03/07 11:26:20;;;;;;;5.57;2.47;;;1.80;99.90;;;;;;4955901;28;20050;-65
2023/03/07 11:29:06;;;;;;;7.25;3.13;;;1.80;99.90;;;;;;4960744;28;20113;-66
2023/03/07 11:31:58;;;;;;;4.28;2.55;;;1.90;99.90;;;;;;4962663;28;20799;-67
2023/03/07 11:34:38;;;;;;;6.25;2.28;;;1.90;99.90;;;;;;4956036;28;20503;-66
2023/03/07 11:37:26;;;;;;;5.13;2.60;;;1.90;99.90;;;;;;4962920;28;20069;-68
2023/03/07 11:40:22;;;;;;;8.30;5.18;;;2.00;99.90;;;;;;4960749;28;20086;-66
2023/03/07 11:43:26;;;;;;;3.55;2.63;;;2.00;99.90;;;;;;4959298;28;21250;-66
2023/03/07 11:46:04;;;;;;;6.30;3.20;;;2.00;99.90;;;;;;4960414;28;20051;-66
2023/03/07 11:48:37;;;;;;;9.55;2.70;;;2.00;99.90;;;;;;4962534;28;20054;-68
2023/03/07 11:51:09;;;;;;;2.38;1.95;;;2.00;99.90;;;;;;4962735;28;20043;-67
2023/03/07 11:53:56;;;;;;;4.72;3.10;;;2.00;99.90;;;;;;4960047;28;20051;-70
2023/03/07 11:56:31;;;;;;;4.50;1.90;;;2.10;99.90;;;;;;4959716;28;20177;-66
2023/03/07 11:59:11;;;;;;;4.50;2.65;;;2.10;99.90;;;;;;4962684;28;20082;-67
2023/03/07 12:01:38;;;;;;;;;;;2.20;99.90;;;;;;4963445;28;20545;-66
2023/03/07 12:04:10;;;;;;;5.03;2.35;;;2.20;99.90;;;;;;4961400;28;19936;-68
2023/03/07 12:07:14;;;;;;;6.30;1.75;;;2.20;99.90;;;;;;4962201;28;20473;-67
2023/03/07 12:10:13;;;;;;;2.80;2.10;;;2.20;99.90;;;;;;4962505;28;20556;-67
2023/03/07 12:13:09;;;;;;;3.38;1.95;;;2.10;99.90;;;;;;4959451;28;20051;-66
2023/03/07 12:15:48;;;;;;;4.75;3.78;;;2.10;99.90;;;;;;4962480;28;20062;-67
2023/03/07 12:18:42;;;;;;;8.57;3.85;;;2.00;99.90;;;;;;4961539;28;20043;-67
2023/03/07 12:21:34;;;;;;;7.03;3.90;;;2.10;99.90;;;;;;4961988;28;20055;-66
2023/03/07 12:24:27;;;;;;;5.53;3.88;;;2.10;99.90;;;;;;4959900;28;20224;-67
2023/03/07 12:27:03;;;;;;;7.85;3.72;;;2.10;99.90;;;;;;4977078;28;20424;-67
2023/03/07 12:29:51;;;;;;;12.45;5.38;;;2.10;99.90;;;;;;4961410;28;20146;-67
2023/03/07 12:32:24;;;;;;;7.72;4.65;;;2.10;99.90;;;;;;4959616;28;20133;-69
2023/03/07 12:35:15;;;;;;;7.80;4.43;;;2.00;99.90;;;;;;4958716;28;20058;-67
2023/03/07 12:38:00;;;;;;;5.68;4.20;;;1.90;99.90;;;;;;4958499;28;20046;-69
2023/03/07 12:40:40;;;;;;;7.30;3.53;;;1.80;99.90;;;;;;4958670;28;20210;-69
2023/03/07 12:43:28;;;;;;;6.15;4.20;;;1.70;99.90;;;;;;4960603;28;20082;-66
2023/03/07 12:46:08;;;;;;;7.75;4.63;;;1.60;99.90;;;;;;4957820;28;20073;-67
2023/03/07 12:48:54;;;;;;;8.60;5.28;;;1.60;99.90;;;;;;4959231;28;20058;-68
2023/03/07 12:51:28;;;;;;;8.15;5.20;;;1.40;99.90;;;;;;4959687;28;20910;-66
2023/03/07 12:54:19;;;;;;;11.13;6.40;;;1.10;99.90;;;;;;4957449;28;20062;-67
2023/03/07 12:57:03;;;;;;;14.80;5.95;;;0.90;99.90;;;;;;4959423;28;20129;-66
2023/03/07 12:59:35;;;;;;;8.77;5.68;;;0.80;99.90;;;;;;4960737;28;20054;-68
2023/03/07 13:02:11;;;;;;;8.05;5.30;;;0.80;99.90;;;;;;4959175;28;20050;-66
2023/03/07 13:04:41;;;;;;;9.65;5.10;;;0.80;99.90;;;;;;4959716;28;20528;-67
2023/03/07 13:07:23;;;;;;;9.52;5.72;;;0.70;99.90;;;;;;4960636;28;20072;-66
2023/03/07 13:09:53;;;;;;;9.55;5.03;;;0.60;99.90;;;;;;4960728;28;20077;-67
2023/03/07 13:12:29;;;;;;;9.45;5.20;;;0.50;99.90;;;;;;4958882;28;20579;-65
2023/03/07 13:15:00;;;;;;;7.93;4.57;;;0.50;99.90;;;;;;4960133;28;20477;-66